Time;durP1;ratioP1;P1;durP2;ratioP2;P2;SDS_P1;SDS_P2;PMS_P1;PMS_P2;Temp;Humidity;BMP_temperature;BMP_pressure;BME280_temperature;BME280_humidity;BME280_pressure;Samples;Min_cycle;Max_cycle;Signal;HPM_P1;HPM_P2
2023/06/27 00:01:39;;;;;;;3.58;1.60;;;;;;;;;;5092706;28;20431;-67
2023/06/27 00:04:08;;;;;;;3.83;1.77;;;;;;;;;;5105078;28;20414;-67
2023/06/27 00:06:37;;;;;;;4.63;2.03;;;;;;;;;;5093308;28;20510;-66
2023/06/27 00:09:05;;;;;;;4.20;1.80;;;;;;;;;;5110327;28;21192;-66
2023/06/27 00:11:32;;;;;;;3.47;1.70;;;;;;;;;;5114531;28;20572;-65
2023/06/27 00:14:00;;;;;;;3.30;1.63;;;;;;;;;;5103704;28;20423;-67
2023/06/27 00:16:32;;;;;;;3.75;1.70;;;;;;;;;;5105174;28;20789;-67
2023/06/27 00:19:03;;;;;;;3.47;1.80;;;;;;;;;;5107379;22;20443;-74
2023/06/27 00:21:32;;;;;;;3.53;1.77;;;;;;;;;;5090578;28;20418;-74
2023/06/27 00:24:00;;;;;;;3.85;2.05;;;;;;;;;;5090605;28;20934;-77
2023/06/27 00:26:27;;;;;;;4.60;1.70;;;;;;;;;;5097537;28;20449;-77
2023/06/27 00:28:54;;;;;;;2.30;1.70;;;;;;;;;;5095492;28;20461;-76
2023/06/27 00:31:21;;;;;;;4.63;1.90;;;;;;;;;;5086214;28;20474;-75
2023/06/27 00:33:48;;;;;;;3.60;1.70;;;;;;;;;;5070086;28;20448;-75
2023/06/27 00:36:15;;;;;;;3.40;1.80;;;;;;;;;;5066124;28;20434;-75
2023/06/27 00:38:44;;;;;;;3.93;1.70;;;;;;;;;;5070357;28;20423;-78
2023/06/27 00:41:11;;;;;;;3.90;1.75;;;;;;;;;;5078255;28;20412;-78
2023/06/27 00:43:38;;;;;;;4.18;1.67;;;;;;;;;;5074967;28;20829;-77
2023/06/27 00:46:07;;;;;;;4.30;1.73;;;;;;;;;;5065832;28;20432;-77
2023/06/27 00:48:34;;;;;;;3.08;1.70;;;;;;;;;;5069893;28;20435;-77
2023/06/27 00:51:03;;;;;;;3.38;1.80;;;;;;;;;;5070679;28;20809;-77
2023/06/27 00:53:31;;;;;;;4.10;1.80;;;;;;;;;;5077354;28;20434;-75
2023/06/27 00:55:59;;;;;;;3.38;1.60;;;;;;;;;;5074580;28;20889;-75
2023/06/27 00:58:27;;;;;;;3.25;1.75;;;;;;;;;;5110191;28;20394;-78
2023/06/27 01:00:54;;;;;;;2.80;1.50;;;;;;;;;;5074011;28;20495;-76
2023/06/27 01:03:21;;;;;;;3.80;1.80;;;;;;;;;;5069487;28;20439;-78
2023/06/27 01:05:49;;;;;;;3.95;1.90;;;;;;;;;;5069697;28;20505;-78
2023/06/27 01:08:20;;;;;;;3.92;1.80;;;;;;;;;;5077094;28;20453;-77
2023/06/27 01:10:49;;;;;;;3.70;1.80;;;;;;;;;;5071833;28;20798;-76
2023/06/27 01:13:19;;;;;;;2.80;1.70;;;;;;;;;;5091709;28;20522;-76
2023/06/27 01:15:46;;;;;;;4.45;1.80;;;;;;;;;;5066798;28;20431;-78
2023/06/27 01:18:14;;;;;;;2.88;2.00;;;;;;;;;;5076959;28;20869;-75
2023/06/27 01:20:43;;;;;;;3.22;1.60;;;;;;;;;;5072688;28;20755;-76
2023/06/27 01:23:13;;;;;;;3.83;1.92;;;;;;;;;;5074758;28;20461;-77
2023/06/27 01:25:41;;;;;;;4.38;1.80;;;;;;;;;;5063841;28;20428;-77
2023/06/27 01:28:09;;;;;;;3.50;1.60;;;;;;;;;;5080482;28;20417;-76
2023/06/27 01:30:36;;;;;;;4.07;1.88;;;;;;;;;;5073785;28;20429;-76
2023/06/27 01:33:05;;;;;;;2.63;1.58;;;;;;;;;;5078710;28;20423;-76
2023/06/27 01:35:35;;;;;;;3.08;1.50;;;;;;;;;;5074602;28;20431;-75
2023/06/27 01:38:05;;;;;;;3.95;2.00;;;;;;;;;;5077667;28;20925;-76
2023/06/27 01:40:36;;;;;;;3.85;1.80;;;;;;;;;;5073837;28;20423;-76
2023/06/27 01:43:07;;;;;;;2.50;1.40;;;;;;;;;;5074393;28;20508;-76
2023/06/27 01:45:35;;;;;;;3.15;1.85;;;;;;;;;;5064063;28;20850;-76
2023/06/27 01:48:03;;;;;;;5.32;1.70;;;;;;;;;;5072518;28;20779;-75
2023/06/27 01:50:30;;;;;;;2.83;1.60;;;;;;;;;;5079359;28;21159;-76
2023/06/27 01:52:57;;;;;;;2.95;1.80;;;;;;;;;;5067203;28;20617;-76
2023/06/27 01:55:25;;;;;;;3.75;1.80;;;;;;;;;;5073522;28;20426;-75
2023/06/27 01:57:52;;;;;;;5.22;2.00;;;;;;;;;;5077049;28;20485;-78
2023/06/27 02:00:20;;;;;;;4.70;2.13;;;;;;;;;;5063925;28;20437;-77
2023/06/27 02:02:48;;;;;;;4.22;1.95;;;;;;;;;;5071191;28;20438;-76
2023/06/27 02:05:15;;;;;;;4.70;1.70;;;;;;;;;;5064357;28;20793;-78
2023/06/27 02:07:42;;;;;;;3.00;1.67;;;;;;;;;;5071860;28;20432;-78
2023/06/27 02:10:09;;;;;;;3.13;1.65;;;;;;;;;;5074630;28;20542;-77
2023/06/27 02:12:37;;;;;;;2.40;1.58;;;;;;;;;;5074069;28;20529;-76
2023/06/27 02:15:04;;;;;;;3.10;1.70;;;;;;;;;;5071190;28;20927;-76
2023/06/27 02:17:33;;;;;;;3.55;1.55;;;;;;;;;;5076251;28;20471;-78
2023/06/27 02:20:00;;;;;;;2.70;1.67;;;;;;;;;;5084657;28;20794;-77
2023/06/27 02:22:27;;;;;;;2.65;1.95;;;;;;;;;;5076656;28;20427;-78
2023/06/27 02:24:54;;;;;;;5.13;1.90;;;;;;;;;;5069088;28;20434;-77
2023/06/27 02:27:21;;;;;;;4.30;1.90;;;;;;;;;;5069534;28;20422;-76
2023/06/27 02:29:48;;;;;;;4.03;1.70;;;;;;;;;;5064348;28;20459;-78
2023/06/27 02:32:15;;;;;;;5.10;1.90;;;;;;;;;;5070127;28;20433;-76
2023/06/27 02:50:02;;;;;;;2.80;1.60;;;;;;;;;;5070221;28;20393;-77
2023/06/27 02:52:29;;;;;;;5.20;2.30;;;;;;;;;;5068311;28;20899;-76
2023/06/27 02:54:56;;;;;;;3.35;1.88;;;;;;;;;;5072100;28;20423;-77
2023/06/27 02:57:23;;;;;;;4.65;2.00;;;;;;;;;;5078131;28;20418;-77
2023/06/27 02:59:50;;;;;;;3.80;1.92;;;;;;;;;;5088086;28;20796;-74
2023/06/27 03:02:17;;;;;;;3.30;2.00;;;;;;;;;;5078915;28;20424;-74
2023/06/27 03:04:46;;;;;;;4.40;2.00;;;;;;;;;;5075274;28;20415;-76
2023/06/27 03:07:15;;;;;;;3.90;2.10;;;;;;;;;;5063921;28;20467;-78
2023/06/27 03:09:42;;;;;;;4.57;2.10;;;;;;;;;;5067047;28;20428;-76
2023/06/27 03:12:09;;;;;;;5.93;2.30;;;;;;;;;;5066770;28;20435;-76
2023/06/27 03:14:36;;;;;;;4.78;2.10;;;;;;;;;;5072151;28;20431;-78
2023/06/27 03:17:03;;;;;;;6.53;2.20;;;;;;;;;;5076597;28;20442;-76
2023/06/27 03:19:30;;;;;;;3.15;2.20;;;;;;;;;;5068941;28;20442;-78
2023/06/27 03:21:57;;;;;;;5.40;2.60;;;;;;;;;;5068945;28;20435;-76
2023/06/27 03:24:26;;;;;;;4.93;2.20;;;;;;;;;;5078793;28;20792;-77
2023/06/27 03:26:53;;;;;;;4.65;2.30;;;;;;;;;;5083973;28;20418;-76
2023/06/27 03:29:20;;;;;;;5.10;2.28;;;;;;;;;;5087264;28;20788;-76
2023/06/27 03:31:47;;;;;;;4.95;2.40;;;;;;;;;;5068947;28;20431;-77
2023/06/27 03:34:14;;;;;;;3.58;2.20;;;;;;;;;;5081518;28;20421;-76
2023/06/27 03:36:41;;;;;;;5.25;2.50;;;;;;;;;;5084749;28;20411;-78
2023/06/27 03:39:08;;;;;;;3.70;2.20;;;;;;;;;;5064278;28;20439;-77
2023/06/27 03:41:37;;;;;;;5.50;2.50;;;;;;;;;;5061199;28;20432;-77
2023/06/27 03:44:05;;;;;;;3.60;2.22;;;;;;;;;;5085083;28;20412;-75
2023/06/27 03:46:32;;;;;;;5.75;2.90;;;;;;;;;;5067780;28;20511;-78
2023/06/27 03:48:59;;;;;;;3.85;2.33;;;;;;;;;;5066990;28;20420;-76
2023/06/27 03:51:26;;;;;;;6.97;2.83;;;;;;;;;;5062203;28;20973;-78
2023/06/27 03:53:53;;;;;;;5.63;2.60;;;;;;;;;;5067786;28;20435;-76
2023/06/27 03:56:21;;;;;;;3.80;2.40;;;;;;;;;;5082338;28;20414;-78
2023/06/27 03:58:49;;;;;;;4.88;2.53;;;;;;;;;;5065367;28;20428;-76
2023/06/27 04:01:16;;;;;;;4.15;2.80;;;;;;;;;;5070200;28;20428;-76
2023/06/27 04:03:43;;;;;;;4.07;2.38;;;;;;;;;;5070276;28;20470;-77
2023/06/27 04:06:10;;;;;;;7.60;3.15;;;;;;;;;;5083862;28;20972;-76
2023/06/27 04:08:37;;;;;;;3.88;2.42;;;;;;;;;;5070452;28;20438;-76
2023/06/27 04:11:04;;;;;;;4.93;2.50;;;;;;;;;;5062280;28;20520;-78
2023/06/27 04:13:31;;;;;;;4.65;2.25;;;;;;;;;;5081488;28;20437;-73
2023/06/27 04:16:00;;;;;;;6.13;3.00;;;;;;;;;;5059119;28;20441;-75
2023/06/27 04:18:27;;;;;;;3.70;2.40;;;;;;;;;;5077756;28;20440;-76
2023/06/27 04:20:54;;;;;;;4.90;2.70;;;;;;;;;;5073177;28;20451;-78
2023/06/27 04:23:21;;;;;;;4.28;2.45;;;;;;;;;;5071005;28;20910;-76
2023/06/27 04:26:02;;;;;;;4.88;2.78;;;;;;;;;;5072629;28;20431;-76
2023/06/27 04:28:30;;;;;;;6.05;2.70;;;;;;;;;;5071701;28;20435;-77
2023/06/27 04:30:57;;;;;;;5.40;2.58;;;;;;;;;;5069376;28;20425;-77
2023/06/27 04:33:27;;;;;;;5.22;2.90;;;;;;;;;;5071859;28;20442;-77
2023/06/27 04:35:54;;;;;;;6.10;2.60;;;;;;;;;;5073860;28;20445;-62
2023/06/27 04:38:21;;;;;;;5.88;2.60;;;;;;;;;;5066132;28;20904;-63
2023/06/27 04:40:48;;;;;;;3.80;2.60;;;;;;;;;;5072420;28;20834;-62
2023/06/27 04:43:15;;;;;;;4.30;2.90;;;;;;;;;;5063452;28;20429;-62
2023/06/27 04:45:42;;;;;;;5.90;2.50;;;;;;;;;;5070687;28;20431;-63
2023/06/27 04:48:09;;;;;;;3.92;2.60;;;;;;;;;;5068787;28;20412;-63
2023/06/27 04:50:38;;;;;;;4.40;2.47;;;;;;;;;;5068668;28;20432;-60
2023/06/27 04:53:05;;;;;;;4.63;2.55;;;;;;;;;;5070284;28;20441;-63
2023/06/27 04:55:32;;;;;;;5.60;3.17;;;;;;;;;;5064921;28;20910;-66
2023/06/27 04:57:59;;;;;;;4.68;2.90;;;;;;;;;;5068573;28;20431;-64
2023/06/27 05:00:28;;;;;;;4.57;2.53;;;;;;;;;;5069824;28;20439;-62
2023/06/27 05:02:56;;;;;;;3.85;2.95;;;;;;;;;;5091504;28;20420;-65
2023/06/27 05:05:24;;;;;;;4.63;3.10;;;;;;;;;;5076978;28;20829;-63
2023/06/27 05:07:53;;;;;;;6.32;3.10;;;;;;;;;;5063501;28;20514;-64
2023/06/27 05:10:20;;;;;;;3.92;2.65;;;;;;;;;;5075102;28;20425;-64
2023/06/27 05:12:47;;;;;;;6.22;2.88;;;;;;;;;;5072679;28;20431;-63
2023/06/27 05:15:14;;;;;;;5.70;2.90;;;;;;;;;;5075178;28;20436;-62
2023/06/27 05:17:50;;;;;;;4.95;2.60;;;;;;;;;;5070419;28;20431;-63
2023/06/27 05:20:18;;;;;;;8.17;2.97;;;;;;;;;;5081770;28;20769;-65
2023/06/27 05:22:45;;;;;;;5.30;2.90;;;;;;;;;;5074312;28;20470;-62
2023/06/27 05:25:13;;;;;;;6.23;2.90;;;;;;;;;;5074589;28;20460;-62
2023/06/27 05:27:40;;;;;;;6.50;3.00;;;;;;;;;;5066900;28;20431;-63
2023/06/27 05:30:08;;;;;;;6.85;3.10;;;;;;;;;;5075924;28;20435;-62
2023/06/27 05:32:35;;;;;;;5.30;3.08;;;;;;;;;;5081704;28;20427;-63
2023/06/27 05:35:02;;;;;;;10.05;3.00;;;;;;;;;;5083070;28;20410;-63
2023/06/27 05:37:29;;;;;;;7.50;2.50;;;;;;;;;;5076635;28;20432;-65
2023/06/27 05:39:56;;;;;;;6.95;3.15;;;;;;;;;;5064305;28;20427;-64
2023/06/27 05:42:25;;;;;;;5.55;2.95;;;;;;;;;;5078727;28;20481;-64
2023/06/27 05:44:52;;;;;;;6.93;3.03;;;;;;;;;;5071472;28;20419;-63
2023/06/27 05:47:19;;;;;;;6.50;2.90;;;;;;;;;;5065577;28;20484;-64
2023/06/27 05:49:47;;;;;;;4.20;2.80;;;;;;;;;;5077787;28;20411;-63
2023/06/27 05:52:14;;;;;;;5.95;2.92;;;;;;;;;;5073080;28;20444;-63
2023/06/27 05:54:42;;;;;;;10.30;2.90;;;;;;;;;;5067754;28;20441;-64
2023/06/27 05:57:09;;;;;;;6.33;3.17;;;;;;;;;;5067565;28;20518;-62
2023/06/27 05:59:38;;;;;;;5.28;3.03;;;;;;;;;;5070398;28;20443;-62
2023/06/27 06:02:05;;;;;;;7.35;2.97;;;;;;;;;;5083895;28;20427;-64
2023/06/27 06:04:32;;;;;;;6.60;2.97;;;;;;;;;;5070739;28;20438;-63
2023/06/27 06:06:59;;;;;;;5.50;3.30;;;;;;;;;;5077920;28;20518;-76
2023/06/27 06:09:26;;;;;;;5.75;2.97;;;;;;;;;;5069184;28;20428;-77
2023/06/27 06:11:53;;;;;;;6.60;3.20;;;;;;;;;;5065147;28;20691;-75
2023/06/27 06:14:21;;;;;;;5.95;2.92;;;;;;;;;;5062247;28;20433;-75
2023/06/27 06:16:49;;;;;;;4.00;2.70;;;;;;;;;;5067904;28;20470;-76
2023/06/27 06:19:16;;;;;;;5.72;3.00;;;;;;;;;;5087696;22;20434;-66
2023/06/27 06:21:43;;;;;;;4.30;2.73;;;;;;;;;;5084662;28;20427;-66
2023/06/27 06:24:10;;;;;;;6.50;2.75;;;;;;;;;;5075317;28;20438;-66
2023/06/27 06:26:38;;;;;;;4.70;2.90;;;;;;;;;;5083106;28;20429;-66
2023/06/27 06:29:05;;;;;;;5.72;2.72;;;;;;;;;;5082791;28;20426;-66
2023/06/27 06:31:32;;;;;;;6.10;2.40;;;;;;;;;;5080737;28;20429;-66
2023/06/27 06:34:00;;;;;;;5.22;2.70;;;;;;;;;;5085280;28;20429;-67
2023/06/27 06:36:27;;;;;;;6.00;2.40;;;;;;;;;;5087731;28;20441;-66
2023/06/27 06:38:55;;;;;;;5.18;3.03;;;;;;;;;;5087460;28;20426;-66
2023/06/27 06:41:22;;;;;;;5.40;2.60;;;;;;;;;;5091264;28;20937;-67
2023/06/27 06:43:49;;;;;;;6.57;3.00;;;;;;;;;;5077891;28;20410;-66
2023/06/27 06:46:16;;;;;;;4.30;2.57;;;;;;;;;;5080006;28;20440;-66
2023/06/27 06:48:43;;;;;;;5.47;2.45;;;;;;;;;;5095214;28;20434;-66
2023/06/27 06:51:11;;;;;;;7.68;2.80;;;;;;;;;;5089314;28;20429;-66
2023/06/27 06:53:38;;;;;;;7.28;2.75;;;;;;;;;;5088097;28;20455;-66
2023/06/27 06:56:06;;;;;;;5.50;2.70;;;;;;;;;;5083451;28;20417;-66
2023/06/27 06:58:33;;;;;;;5.50;2.70;;;;;;;;;;5076934;28;20434;-66
2023/06/27 07:01:00;;;;;;;4.88;2.50;;;;;;;;;;5082999;28;20479;-66
2023/06/27 07:03:27;;;;;;;5.25;2.58;;;;;;;;;;5073969;28;20432;-66
2023/06/27 07:05:54;;;;;;;8.85;3.17;;;;;;;;;;5076219;28;20427;-66
2023/06/27 07:08:23;;;;;;;6.03;2.53;;;;;;;;;;5073210;28;20798;-66
2023/06/27 07:10:50;;;;;;;5.55;2.70;;;;;;;;;;5079931;28;20901;-67
2023/06/27 07:13:17;;;;;;;6.00;2.60;;;;;;;;;;5083756;28;20434;-66
2023/06/27 07:15:44;;;;;;;7.82;2.60;;;;;;;;;;5082702;28;20970;-67
2023/06/27 07:18:11;;;;;;;6.97;3.30;;;;;;;;;;5083220;28;20415;-66
2023/06/27 07:20:38;;;;;;;7.05;2.88;;;;;;;;;;5079177;28;20433;-67
2023/06/27 07:23:05;;;;;;;6.30;3.20;;;;;;;;;;5090887;28;20431;-67
2023/06/27 07:25:35;;;;;;;5.68;2.60;;;;;;;;;;5079060;28;20441;-67
2023/06/27 07:28:02;;;;;;;6.50;2.80;;;;;;;;;;5078600;28;20465;-67
2023/06/27 07:30:29;;;;;;;7.07;2.40;;;;;;;;;;5077470;28;20517;-67
2023/06/27 07:32:56;;;;;;;8.85;2.45;;;;;;;;;;5072300;28;20906;-67
2023/06/27 07:35:23;;;;;;;6.82;2.70;;;;;;;;;;5098861;28;20412;-67
2023/06/27 07:37:51;;;;;;;5.72;2.47;;;;;;;;;;5067751;28;20419;-68
2023/06/27 07:40:18;;;;;;;5.88;2.67;;;;;;;;;;5077315;28;20438;-67
2023/06/27 07:42:46;;;;;;;6.75;2.40;;;;;;;;;;5067998;28;20412;-67
2023/06/27 07:45:13;;;;;;;4.72;2.42;;;;;;;;;;5068426;28;20419;-67
2023/06/27 07:47:40;;;;;;;6.40;2.65;;;;;;;;;;5088493;28;20409;-67
2023/06/27 07:50:07;;;;;;;4.38;2.00;;;;;;;;;;5091352;28;20429;-67
2023/06/27 07:52:35;;;;;;;5.05;2.20;;;;;;;;;;5082470;28;20436;-67
2023/06/27 07:55:02;;;;;;;6.65;2.45;;;;;;;;;;5081736;28;20446;-67
2023/06/27 07:57:29;;;;;;;6.57;2.40;;;;;;;;;;5076108;28;20905;-67
2023/06/27 07:59:58;;;;;;;7.33;2.20;;;;;;;;;;5082063;28;20938;-67
2023/06/27 08:02:25;;;;;;;3.95;2.05;;;;;;;;;;5076777;28;20943;-67
2023/06/27 08:04:52;;;;;;;4.63;2.10;;;;;;;;;;5080871;28;20434;-67
2023/06/27 08:07:19;;;;;;;5.97;2.00;;;;;;;;;;5075744;28;20433;-66
2023/06/27 08:09:46;;;;;;;3.55;1.80;;;;;;;;;;5076952;28;20433;-67
2023/06/27 08:12:13;;;;;;;4.68;2.08;;;;;;;;;;5084514;28;20425;-67
2023/06/27 08:14:42;;;;;;;7.60;2.85;;;;;;;;;;5076024;28;20446;-66
2023/06/27 08:17:10;;;;;;;5.93;2.00;;;;;;;;;;5083240;28;20525;-65
2023/06/27 08:19:37;;;;;;;6.15;2.15;;;;;;;;;;5074769;28;20434;-65
2023/06/27 08:22:05;;;;;;;5.82;1.95;;;;;;;;;;5071982;28;20430;-64
2023/06/27 08:24:32;;;;;;;6.43;2.20;;;;;;;;;;5081245;28;20429;-65
2023/06/27 08:26:59;;;;;;;4.72;2.20;;;;;;;;;;5082307;28;20423;-65
2023/06/27 08:29:26;;;;;;;5.47;1.97;;;;;;;;;;5075785;28;20426;-65
2023/06/27 08:31:58;;;;;;;4.07;2.17;;;;;;;;;;5081378;28;20432;-64
2023/06/27 08:34:26;;;;;;;5.00;1.77;;;;;;;;;;5089053;28;20425;-70
2023/06/27 08:36:54;;;;;;;5.35;2.25;;;;;;;;;;5087907;28;20452;-65
2023/06/27 08:39:21;;;;;;;4.30;2.30;;;;;;;;;;5079900;28;20509;-65
2023/06/27 08:41:48;;;;;;;5.63;2.00;;;;;;;;;;5090106;28;20864;-64
2023/06/27 08:44:16;;;;;;;4.78;2.05;;;;;;;;;;5076888;28;20457;-64
2023/06/27 08:46:44;;;;;;;6.38;2.20;;;;;;;;;;5085682;28;20433;-65
2023/06/27 08:49:12;;;;;;;4.30;2.10;;;;;;;;;;5092330;28;20428;-65
2023/06/27 08:51:41;;;;;;;5.03;2.30;;;;;;;;;;5092572;28;20847;-65
2023/06/27 08:54:14;;;;;;;5.35;1.90;;;;;;;;;;5090753;28;20433;-65
2023/06/27 08:56:41;;;;;;;5.28;2.08;;;;;;;;;;5085807;28;20432;-65
2023/06/27 08:59:11;;;;;;;4.82;2.05;;;;;;;;;;5086014;28;20445;-65
2023/06/27 09:01:39;;;;;;;4.20;2.10;;;;;;;;;;5082832;28;20446;-65
2023/06/27 09:04:06;;;;;;;4.90;2.08;;;;;;;;;;5083735;28;20453;-64
2023/06/27 09:06:33;;;;;;;3.93;1.50;;;;;;;;;;5079625;28;20453;-65
2023/06/27 09:09:01;;;;;;;5.27;1.90;;;;;;;;;;5082839;28;20450;-64
2023/06/27 09:11:28;;;;;;;5.68;1.90;;;;;;;;;;5079332;28;20432;-65
2023/06/27 09:13:55;;;;;;;4.00;1.40;;;;;;;;;;5076723;28;20450;-64
2023/06/27 09:16:22;;;;;;;4.50;1.40;;;;;;;;;;5081742;28;20483;-64
2023/06/27 09:18:50;;;;;;;7.38;2.63;;;;;;;;;;5093165;28;20412;-63
2023/06/27 09:21:17;;;;;;;4.37;2.10;;;;;;;;;;5081118;28;20489;-64
2023/06/27 09:23:46;;;;;;;4.50;1.60;;;;;;;;;;5075657;28;20434;-64
2023/06/27 09:26:15;;;;;;;4.13;1.50;;;;;;;;;;5089451;28;20511;-64
2023/06/27 09:28:46;;;;;;;4.45;1.58;;;;;;;;;;5074093;28;20418;-64
2023/06/27 09:31:14;;;;;;;3.40;1.70;;;;;;;;;;5080882;28;20427;-64
2023/06/27 09:33:41;;;;;;;3.90;1.60;;;;;;;;;;5084619;28;20463;-68
2023/06/27 09:36:08;;;;;;;2.47;1.40;;;;;;;;;;5086215;28;20445;-69
2023/06/27 09:38:35;;;;;;;3.17;1.50;;;;;;;;;;5079367;28;20444;-70
2023/06/27 09:41:03;;;;;;;4.72;1.60;;;;;;;;;;5082531;28;20434;-71
2023/06/27 09:43:35;;;;;;;5.18;1.65;;;;;;;;;;5087514;28;20439;-70
2023/06/27 09:46:02;;;;;;;3.00;1.40;;;;;;;;;;5086626;28;20529;-71
2023/06/27 09:48:30;;;;;;;3.75;1.20;;;;;;;;;;5090724;28;20491;-72
2023/06/27 09:51:00;;;;;;;2.60;1.40;;;;;;;;;;5075785;28;20514;-71
2023/06/27 09:53:27;;;;;;;3.30;1.48;;;;;;;;;;5092309;28;20460;-71
2023/06/27 09:55:58;;;;;;;5.00;1.77;;;;;;;;;;5087647;28;20419;-72
2023/06/27 09:58:29;;;;;;;4.72;1.25;;;;;;;;;;5080397;28;20729;-71
2023/06/27 10:01:04;;;;;;;2.93;1.70;;;;;;;;;;5088963;28;20433;-72
2023/06/27 10:03:32;;;;;;;3.50;1.60;;;;;;;;;;5087239;28;20429;-72
2023/06/27 10:05:59;;;;;;;4.20;1.88;;;;;;;;;;5082524;28;20453;-72
2023/06/27 10:08:26;;;;;;;3.90;1.50;;;;;;;;;;5082531;28;20434;-72
2023/06/27 10:10:58;;;;;;;3.40;1.30;;;;;;;;;;5079807;28;20923;-71
2023/06/27 10:13:25;;;;;;;2.67;1.50;;;;;;;;;;5086003;28;20418;-71
2023/06/27 10:15:52;;;;;;;2.85;1.30;;;;;;;;;;5083968;28;20459;-72
2023/06/27 10:18:21;;;;;;;3.88;1.20;;;;;;;;;;5085747;28;20430;-70
2023/06/27 10:20:48;;;;;;;2.05;1.13;;;;;;;;;;5077322;28;20416;-71
2023/06/27 10:23:15;;;;;;;4.15;1.30;;;;;;;;;;5074476;28;20423;-71
2023/06/27 10:25:42;;;;;;;4.07;1.30;;;;;;;;;;5088175;28;21084;-71
2023/06/27 10:28:10;;;;;;;3.95;2.70;;;;;;;;;;5082031;28;20781;-69
2023/06/27 10:30:44;;;;;;;3.17;1.40;;;;;;;;;;5080266;28;20426;-69
2023/06/27 10:33:12;;;;;;;2.55;1.40;;;;;;;;;;5100087;28;20805;-69
2023/06/27 10:35:50;;;;;;;2.50;1.20;;;;;;;;;;5080932;28;20525;-69
2023/06/27 10:38:18;;;;;;;6.18;1.52;;;;;;;;;;5086707;28;20496;-69
2023/06/27 10:41:06;;;;;;;2.70;1.25;;;;;;;;;;5082412;28;20449;-69
2023/06/27 10:43:36;;;;;;;3.63;1.60;;;;;;;;;;5057597;28;20417;-69
2023/06/27 10:46:07;;;;;;;2.30;1.30;;;;;;;;;;5076459;28;20433;-69
2023/06/27 10:48:37;;;;;;;2.63;1.30;;;;;;;;;;5084718;28;20573;-69
2023/06/27 10:51:07;;;;;;;3.30;1.50;;;;;;;;;;5083544;28;20949;-69
2023/06/27 10:53:34;;;;;;;3.60;1.60;;;;;;;;;;5076695;28;20429;-69
2023/06/27 10:56:15;;;;;;;3.42;1.38;;;;;;;;;;5085757;28;20418;-69
2023/06/27 10:58:44;;;;;;;2.10;1.30;;;;;;;;;;5081741;28;20523;-69
2023/06/27 11:01:12;;;;;;;3.45;1.40;;;;;;;;;;5082346;28;20628;-70
2023/06/27 11:03:40;;;;;;;2.30;1.30;;;;;;;;;;5077645;28;21153;-70
2023/06/27 11:06:09;;;;;;;3.53;1.50;;;;;;;;;;5080730;28;20438;-69
2023/06/27 11:08:37;;;;;;;2.30;1.35;;;;;;;;;;5083615;28;20444;-75
2023/06/27 11:11:05;;;;;;;1.85;1.10;;;;;;;;;;5081781;28;20429;-77
2023/06/27 11:13:34;;;;;;;3.55;1.50;;;;;;;;;;5082642;28;20429;-71
2023/06/27 11:16:02;;;;;;;2.20;1.50;;;;;;;;;;5084666;28;20513;-71
2023/06/27 11:18:29;;;;;;;3.00;1.30;;;;;;;;;;5068228;28;20865;-71
2023/06/27 11:20:56;;;;;;;3.08;1.60;;;;;;;;;;5075720;28;21032;-71
2023/06/27 11:23:25;;;;;;;3.60;1.45;;;;;;;;;;5077737;28;20416;-70
2023/06/27 11:25:53;;;;;;;2.70;1.20;;;;;;;;;;5083908;28;20486;-70
2023/06/27 11:28:21;;;;;;;3.60;1.40;;;;;;;;;;5079243;28;20814;-71
2023/06/27 11:30:48;;;;;;;2.65;1.42;;;;;;;;;;5074492;28;20426;-71
2023/06/27 11:33:20;;;;;;;3.17;1.60;;;;;;;;;;5079919;28;20411;-71
2023/06/27 11:35:47;;;;;;;3.88;1.40;;;;;;;;;;5082958;28;20433;-71
2023/06/27 11:38:14;;;;;;;2.92;1.30;;;;;;;;;;5086065;28;20453;-71
2023/06/27 11:40:52;;;;;;;3.47;1.80;;;;;;;;;;5073200;28;20435;-71
2023/06/27 11:43:19;;;;;;;3.83;1.77;;;;;;;;;;5073468;28;20431;-71
2023/06/27 11:45:47;;;;;;;3.20;1.30;;;;;;;;;;5084502;28;20447;-71
2023/06/27 11:48:14;;;;;;;4.57;1.60;;;;;;;;;;5087111;28;20429;-71
2023/06/27 11:50:56;;;;;;;3.67;1.40;;;;;;;;;;5083468;28;20453;-71
2023/06/27 11:53:24;;;;;;;3.42;1.30;;;;;;;;;;5076862;28;20437;-71
2023/06/27 11:55:53;;;;;;;3.07;1.40;;;;;;;;;;5083668;28;20437;-71
2023/06/27 11:58:28;;;;;;;2.70;1.35;;;;;;;;;;5076989;28;20420;-72
2023/06/27 12:00:55;;;;;;;2.90;1.30;;;;;;;;;;5081706;28;20448;-71
2023/06/27 12:03:26;;;;;;;4.80;1.50;;;;;;;;;;5081525;28;20434;-71
2023/06/27 12:05:53;;;;;;;2.70;1.30;;;;;;;;;;5079816;28;20431;-72
2023/06/27 12:08:22;;;;;;;2.80;1.30;;;;;;;;;;5082995;28;20418;-71
2023/06/27 12:10:51;;;;;;;3.40;1.20;;;;;;;;;;5087050;28;20904;-72
2023/06/27 12:13:20;;;;;;;3.78;1.40;;;;;;;;;;5091130;28;20433;-71
2023/06/27 12:15:48;;;;;;;3.42;1.30;;;;;;;;;;5094108;28;20431;-71
2023/06/27 12:18:23;;;;;;;2.55;1.52;;;;;;;;;;5086920;28;20825;-74
2023/06/27 12:20:51;;;;;;;2.20;1.25;;;;;;;;;;5093873;22;20427;-72
2023/06/27 12:23:18;;;;;;;2.53;1.40;;;;;;;;;;5058352;28;20428;-71
2023/06/27 12:25:45;;;;;;;2.88;1.20;;;;;;;;;;5070052;28;20433;-73
2023/06/27 12:28:13;;;;;;;3.72;1.52;;;;;;;;;;5071841;28;20431;-72
2023/06/27 12:30:41;;;;;;;2.80;1.30;;;;;;;;;;5070413;28;20463;-73
2023/06/27 12:33:09;;;;;;;3.37;1.30;;;;;;;;;;5071213;28;20829;-72
2023/06/27 12:35:36;;;;;;;3.47;1.30;;;;;;;;;;5066428;28;20427;-71
2023/06/27 12:38:03;;;;;;;3.25;1.50;;;;;;;;;;5071323;28;20423;-72
2023/06/27 12:40:30;;;;;;;2.97;1.40;;;;;;;;;;5069992;28;20438;-73
2023/06/27 12:42:58;;;;;;;1.70;1.20;;;;;;;;;;5071239;28;20411;-73
2023/06/27 12:45:25;;;;;;;2.72;1.50;;;;;;;;;;5069879;28;20475;-73
2023/06/27 12:47:53;;;;;;;2.05;1.10;;;;;;;;;;5069356;28;20435;-73
2023/06/27 12:50:20;;;;;;;2.80;1.47;;;;;;;;;;5069600;28;20431;-72
2023/06/27 12:52:48;;;;;;;2.40;1.10;;;;;;;;;;5068856;28;20821;-73
2023/06/27 12:55:15;;;;;;;3.80;1.60;;;;;;;;;;5073202;28;20805;-71
2023/06/27 12:57:42;;;;;;;3.00;1.42;;;;;;;;;;5070812;28;20451;-73
2023/06/27 13:00:10;;;;;;;4.05;1.40;;;;;;;;;;5065423;28;20816;-73
2023/06/27 13:02:37;;;;;;;2.92;1.30;;;;;;;;;;5067843;28;20442;-72
2023/06/27 13:05:06;;;;;;;3.20;1.40;;;;;;;;;;5069040;28;20427;-73
2023/06/27 13:07:33;;;;;;;2.20;1.30;;;;;;;;;;5069341;28;20436;-73
2023/06/27 13:10:00;;;;;;;2.80;1.20;;;;;;;;;;5063715;28;20419;-71
2023/06/27 13:12:27;;;;;;;2.85;1.38;;;;;;;;;;5069941;28;20932;-73
2023/06/27 13:14:54;;;;;;;2.83;1.40;;;;;;;;;;5070387;28;20433;-72
2023/06/27 13:17:21;;;;;;;3.80;1.63;;;;;;;;;;5073827;28;20419;-72
2023/06/27 13:19:49;;;;;;;2.53;1.13;;;;;;;;;;5069380;28;20451;-73
2023/06/27 13:22:17;;;;;;;2.63;1.52;;;;;;;;;;5069844;28;20910;-73
2023/06/27 13:24:45;;;;;;;4.10;1.50;;;;;;;;;;5061368;28;20805;-72
2023/06/27 13:27:12;;;;;;;4.47;1.30;;;;;;;;;;5071505;28;20421;-73
2023/06/27 13:29:39;;;;;;;3.55;1.30;;;;;;;;;;5066613;28;20462;-73
2023/06/27 13:32:08;;;;;;;2.97;1.65;;;;;;;;;;5070274;28;20798;-75
2023/06/27 13:34:35;;;;;;;4.15;1.70;;;;;;;;;;5073092;28;20423;-74
2023/06/27 13:37:02;;;;;;;3.97;1.70;;;;;;;;;;5069859;28;20431;-75
2023/06/27 13:39:30;;;;;;;3.08;1.60;;;;;;;;;;5082759;28;21070;-74
2023/06/27 13:41:57;;;;;;;3.33;1.70;;;;;;;;;;5071274;28;20905;-74
2023/06/27 13:44:25;;;;;;;3.33;1.45;;;;;;;;;;5068904;28;20922;-75
2023/06/27 13:46:52;;;;;;;2.85;1.65;;;;;;;;;;5079766;28;20419;-74
2023/06/27 13:49:19;;;;;;;3.30;1.40;;;;;;;;;;5069808;28;20418;-74
2023/06/27 13:51:46;;;;;;;4.15;1.75;;;;;;;;;;5074808;28;20431;-74
2023/06/27 13:54:13;;;;;;;3.90;1.52;;;;;;;;;;5069315;28;20431;-75
2023/06/27 13:56:42;;;;;;;4.60;1.65;;;;;;;;;;5076994;28;20413;-73
2023/06/27 13:59:09;;;;;;;3.42;1.20;;;;;;;;;;5075420;28;20420;-75
2023/06/27 14:01:36;;;;;;;2.20;1.07;;;;;;;;;;5069007;28;20426;-75
2023/06/27 14:04:03;;;;;;;3.07;1.20;;;;;;;;;;5069765;28;20793;-75
2023/06/27 14:06:30;;;;;;;2.85;1.60;;;;;;;;;;5069431;28;20442;-73
2023/06/27 14:08:57;;;;;;;3.40;1.90;;;;;;;;;;5069045;28;20431;-75
2023/06/27 14:11:25;;;;;;;3.50;1.40;;;;;;;;;;5076527;28;20442;-75
2023/06/27 14:13:53;;;;;;;3.38;1.38;;;;;;;;;;5071511;28;20422;-73
2023/06/27 14:16:21;;;;;;;3.38;1.40;;;;;;;;;;5078630;28;20940;-75
2023/06/27 14:18:48;;;;;;;6.70;1.60;;;;;;;;;;5071590;28;20420;-74
2023/06/27 14:21:16;;;;;;;3.20;1.40;;;;;;;;;;5083006;28;20787;-75
2023/06/27 14:23:45;;;;;;;2.40;1.40;;;;;;;;;;5074009;28;20736;-74
2023/06/27 14:26:12;;;;;;;3.10;1.70;;;;;;;;;;5061668;28;20589;-73
2023/06/27 14:28:39;;;;;;;3.42;1.75;;;;;;;;;;5077245;28;20421;-73
2023/06/27 14:31:08;;;;;;;3.65;1.52;;;;;;;;;;5089451;28;20422;-74
2023/06/27 14:33:35;;;;;;;3.00;1.40;;;;;;;;;;5085917;28;20423;-73
2023/06/27 14:36:02;;;;;;;5.28;1.77;;;;;;;;;;5072907;28;20806;-75
2023/06/27 14:38:29;;;;;;;3.90;1.77;;;;;;;;;;5077030;28;20513;-75
2023/06/27 14:40:56;;;;;;;2.97;1.80;;;;;;;;;;5074159;28;20432;-74
2023/06/27 14:43:23;;;;;;;4.13;1.50;;;;;;;;;;5076715;28;20478;-73
2023/06/27 14:45:50;;;;;;;4.28;1.67;;;;;;;;;;5083095;28;20432;-72
2023/06/27 14:48:19;;;;;;;2.90;1.53;;;;;;;;;;5071659;28;20916;-73
2023/06/27 14:50:46;;;;;;;3.92;1.60;;;;;;;;;;5071204;28;20998;-74
2023/06/27 14:53:13;;;;;;;3.58;1.70;;;;;;;;;;5075045;28;20416;-74
2023/06/27 14:55:40;;;;;;;3.50;1.70;;;;;;;;;;5076580;28;20427;-74
2023/06/27 14:58:09;;;;;;;5.10;1.58;;;;;;;;;;5073033;28;20407;-75
2023/06/27 15:00:36;;;;;;;2.83;1.60;;;;;;;;;;5069288;28;20419;-74
2023/06/27 15:03:04;;;;;;;3.80;1.63;;;;;;;;;;5084233;28;20438;-75